메인 페이지
METAR-TAF:

METAR-TAF

공항 :

마이애미, 플로리다, 미국

마이애미 국제공항

위도: 25-47-26N, 경도: 080-18-59W, 고도: 3m

현재 날씨관측

예보는 12분 전, 20:53시(UTC)에 발표되었습니다.
동남동9kt
온도 28°C
습도 55%
기압 1018 hPa
시정: 16.1km
고도 4000ft 상공 구름 조금
고도 25000ft 상공 구름 많음

METAR: KMIA 192053Z 12009KT 10SM FEW040 BKN250 28/18 A3005 RMK AO2 SLP177 T02830178 58015

시각: 17:05 (21:05 UTC)

예보

예보는 9분 전, 20:56시(UTC)에 발표되었습니다.
예보 대상 시간: 19일 21시부터 20일 24시까지 (UTC)
동남동8kt
시정: 10km
고도 4000ft 상공 구름 조금
고도 25000ft 상공 구름 많음
20일 0000시부터 (UTC)
여러 방향의 바람 3kt
시정: 10km
고도 2500ft 상공 구름 조금
고도 25000ft 상공 구름 보통
20일 1400시부터 (UTC)
10kt
시정: 10km
고도 3000ft 상공 구름 보통

TAF: KMIA 192056Z 1921/2024 12008KT P6SM FEW040 BKN250 FM200000 VRB03KT P6SM FEW025 SCT250 FM201400 10010KT P6SM SCT030

4,000개 이상의 공항 관측 자료 및 예보 (METAR 및 TAF 보고).

지도상에서 검색 가능한 기상관측소가 노란 점과 빨간 점으로 표시되어 있습니다.

기상관측소 명을 보려면 표시 위로 마우스를 이동하세요.

날씨 관측과 예보를 보려면 클릭하세요.

지도 변경 : 확대하려면 엑스 표시가 있는 녹색 버튼, 축소하려면 빼기 표시가 있는 녹색 버튼, 다음 페이지의 지도를 보려면 녹색 화살표를 클릭하세요.


METAR-TAF: